createdAt,value
2023-05-14T00:01:00.640Z,11.87
2023-05-14T00:03:30.000Z,10.40
2023-05-14T00:05:58.414Z,8.90
2023-05-14T00:08:26.398Z,10.33
2023-05-14T00:10:54.236Z,7.97
2023-05-14T00:13:22.120Z,7.60
2023-05-14T00:15:50.455Z,6.77
2023-05-14T00:18:18.546Z,9.70
2023-05-14T00:20:47.909Z,9.50
2023-05-14T00:23:15.836Z,6.03
2023-05-14T00:25:43.729Z,6.20
2023-05-14T00:28:11.554Z,6.83
2023-05-14T00:30:40.865Z,6.27
2023-05-14T00:33:08.950Z,5.90
2023-05-14T00:35:37.103Z,5.23
2023-05-14T00:38:06.363Z,6.37
2023-05-14T00:40:34.330Z,6.70
2023-05-14T00:43:02.196Z,6.67
2023-05-14T00:45:30.273Z,6.20
2023-05-14T00:47:58.268Z,6.03
2023-05-14T00:50:26.515Z,6.10
2023-05-14T00:52:54.792Z,5.37
2023-05-14T00:55:24.090Z,6.17
2023-05-14T00:57:55.818Z,5.90
2023-05-14T01:00:24.230Z,6.10
2023-05-14T01:02:52.302Z,6.37
2023-05-14T01:05:20.302Z,5.60
2023-05-14T01:07:53.324Z,6.60
2023-05-14T01:10:29.277Z,8.47
2023-05-14T01:13:03.043Z,5.83
2023-05-14T01:15:32.631Z,6.43
2023-05-14T01:18:01.475Z,6.30
2023-05-14T01:20:29.528Z,6.03
2023-05-14T01:23:00.139Z,6.40
2023-05-14T01:25:28.200Z,6.00
2023-05-14T01:28:01.178Z,6.93
2023-05-14T01:30:33.125Z,5.90
2023-05-14T01:33:04.190Z,9.93
2023-05-14T01:35:32.044Z,9.20
2023-05-14T01:38:02.897Z,6.13
2023-05-14T01:40:31.059Z,6.53
2023-05-14T01:42:59.010Z,6.53
2023-05-14T01:45:27.297Z,5.70
2023-05-14T01:47:55.293Z,6.23
2023-05-14T01:50:23.631Z,5.87
2023-05-14T01:52:53.464Z,6.60
2023-05-14T01:55:23.813Z,7.13
2023-05-14T01:57:52.386Z,6.67
2023-05-14T02:00:20.592Z,6.77
2023-05-14T02:02:48.486Z,7.27
2023-05-14T02:05:17.087Z,9.53
2023-05-14T02:07:45.018Z,7.13
2023-05-14T02:10:13.036Z,6.97
2023-05-14T02:12:42.222Z,5.97
2023-05-14T02:15:11.189Z,6.40
2023-05-14T02:17:41.857Z,6.23
2023-05-14T02:20:12.954Z,8.60
2023-05-14T02:22:42.312Z,6.50
2023-05-14T02:25:11.273Z,7.93
2023-05-14T02:27:39.155Z,7.40
2023-05-14T02:30:09.872Z,7.00
2023-05-14T02:32:38.391Z,7.80
2023-05-14T02:35:07.456Z,7.30
2023-05-14T02:37:35.810Z,7.50
2023-05-14T02:40:04.416Z,7.80
2023-05-14T02:42:32.688Z,7.27
2023-05-14T02:45:00.576Z,11.13
2023-05-14T02:47:29.826Z,7.60
2023-05-14T02:49:57.687Z,7.77
2023-05-14T02:52:25.493Z,7.33
2023-05-14T02:54:53.372Z,7.60
2023-05-14T02:57:21.331Z,8.83
2023-05-14T02:59:49.232Z,7.50
2023-05-14T03:02:17.430Z,7.67
2023-05-14T03:04:47.205Z,8.27
2023-05-14T03:07:15.068Z,7.53
2023-05-14T03:09:42.926Z,7.50
2023-05-14T03:12:10.861Z,7.87
2023-05-14T03:14:38.862Z,8.53
2023-05-14T03:17:07.203Z,13.83
2023-05-14T03:19:35.109Z,9.40
2023-05-14T03:22:04.683Z,9.50
2023-05-14T03:24:32.704Z,9.37
2023-05-14T03:27:00.566Z,9.70
2023-05-14T03:29:28.430Z,11.40
2023-05-14T03:31:56.298Z,9.77
2023-05-14T03:34:24.366Z,13.50
2023-05-14T03:36:52.770Z,9.20
2023-05-14T03:39:22.017Z,9.20
2023-05-14T03:41:49.841Z,17.13
2023-05-14T03:44:17.722Z,10.97
2023-05-14T03:46:45.541Z,10.00
2023-05-14T03:49:13.620Z,11.63
2023-05-14T03:51:41.464Z,10.20
2023-05-14T03:54:09.362Z,10.00
2023-05-14T03:56:38.607Z,11.20
2023-05-14T03:59:06.479Z,12.27
2023-05-14T04:01:34.298Z,13.47
2023-05-14T04:04:02.225Z,19.23
2023-05-14T04:06:30.212Z,11.23
2023-05-14T04:09:01.075Z,10.20
2023-05-14T04:11:28.920Z,10.57
2023-05-14T04:13:58.133Z,11.67
2023-05-14T04:16:26.059Z,13.43
2023-05-14T04:18:54.263Z,13.47
2023-05-14T04:21:22.139Z,10.40
2023-05-14T04:23:50.762Z,12.20
2023-05-14T04:26:18.596Z,10.20
2023-05-14T04:28:46.455Z,11.87
2023-05-14T04:31:16.818Z,10.60
2023-05-14T04:33:44.749Z,9.60
2023-05-14T04:36:12.619Z,9.07
2023-05-14T04:38:41.040Z,12.00
2023-05-14T04:41:08.920Z,9.70
2023-05-14T04:43:37.215Z,9.10
2023-05-14T04:46:05.220Z,9.77
2023-05-14T04:48:34.478Z,10.10
2023-05-14T04:51:02.938Z,16.00
2023-05-14T04:53:31.834Z,10.03
2023-05-14T04:55:59.742Z,10.00
2023-05-14T04:58:29.159Z,12.33
2023-05-14T05:00:57.098Z,9.67
2023-05-14T05:03:25.231Z,10.83
2023-05-14T05:05:54.622Z,9.63
2023-05-14T05:08:22.449Z,10.20
2023-05-14T05:10:50.306Z,10.20
2023-05-14T05:13:18.361Z,10.50
2023-05-14T05:15:46.317Z,10.40
2023-05-14T05:18:14.259Z,9.80
2023-05-14T05:20:42.074Z,8.50
2023-05-14T05:23:11.330Z,10.40
2023-05-14T05:25:39.303Z,10.73
2023-05-14T05:28:07.208Z,9.57
2023-05-14T05:30:35.120Z,9.67
2023-05-14T05:33:02.960Z,13.40
2023-05-14T05:35:30.942Z,9.07
2023-05-14T05:38:01.327Z,9.10
2023-05-14T05:40:31.062Z,10.03
2023-05-14T05:42:58.900Z,10.27
2023-05-14T05:45:26.796Z,8.63
2023-05-14T05:47:54.993Z,8.80
2023-05-14T05:50:23.075Z,8.63
2023-05-14T05:52:51.199Z,10.83
2023-05-14T05:55:19.214Z,11.90
2023-05-14T05:57:48.445Z,9.63
2023-05-14T06:00:17.018Z,8.30
2023-05-14T06:02:45.402Z,8.63
2023-05-14T06:05:13.829Z,6.80
2023-05-14T06:07:41.738Z,8.70
2023-05-14T06:10:10.022Z,8.03
2023-05-14T06:12:37.867Z,7.67
2023-05-14T06:15:08.432Z,7.00
2023-05-14T06:17:36.267Z,7.40
2023-05-14T06:20:05.526Z,5.97
2023-05-14T06:22:33.341Z,6.83
2023-05-14T06:25:01.286Z,6.70
2023-05-14T06:27:29.106Z,6.50
2023-05-14T06:29:57.152Z,5.30
2023-05-14T06:32:26.360Z,5.87
2023-05-14T06:34:57.207Z,6.80
2023-05-14T06:37:25.130Z,7.80
2023-05-14T06:39:52.957Z,5.20
2023-05-14T06:42:20.800Z,5.53
2023-05-14T06:44:48.961Z,5.30
2023-05-14T06:47:16.781Z,5.00
2023-05-14T06:49:45.977Z,4.77
2023-05-14T06:52:13.814Z,5.37
2023-05-14T06:54:41.659Z,4.60
2023-05-14T06:57:09.495Z,4.07
2023-05-14T06:59:37.350Z,7.20
2023-05-14T07:02:05.178Z,4.23
2023-05-14T07:04:33.066Z,5.20
2023-05-14T07:07:02.816Z,4.13
2023-05-14T07:09:30.690Z,3.97
2023-05-14T07:11:58.573Z,7.67
2023-05-14T07:14:26.388Z,6.63
2023-05-14T07:16:55.222Z,5.23
2023-05-14T07:19:23.393Z,4.07
2023-05-14T07:21:51.269Z,4.17
2023-05-14T07:24:20.510Z,4.57
2023-05-14T07:26:48.359Z,4.30
2023-05-14T07:29:16.175Z,6.80
2023-05-14T07:31:44.047Z,4.27
2023-05-14T07:34:12.807Z,3.93
2023-05-14T07:36:41.174Z,5.00
2023-05-14T07:39:09.196Z,3.83
2023-05-14T07:41:38.492Z,4.17
2023-05-14T07:44:06.441Z,3.77
2023-05-14T07:46:34.273Z,4.40
2023-05-14T07:49:02.122Z,3.83
2023-05-14T07:51:30.393Z,6.40
2023-05-14T07:53:58.215Z,7.20
2023-05-14T07:56:26.061Z,4.70
2023-05-14T07:58:58.288Z,6.63
2023-05-14T08:01:26.417Z,4.57
2023-05-14T08:03:54.387Z,3.60
2023-05-14T08:06:23.731Z,3.90
2023-05-14T08:08:51.571Z,5.10
2023-05-14T08:11:19.559Z,3.60
2023-05-14T08:13:47.766Z,4.50
2023-05-14T08:16:17.038Z,4.00
2023-05-14T08:18:44.980Z,4.00
2023-05-14T08:21:12.996Z,4.73
2023-05-14T08:23:40.936Z,3.83
2023-05-14T08:26:08.782Z,3.17
2023-05-14T08:28:36.981Z,3.90
2023-05-14T08:31:08.430Z,4.47
2023-05-14T08:33:38.244Z,11.80
2023-05-14T08:36:07.291Z,3.83
2023-05-14T08:38:35.127Z,3.67
2023-05-14T08:41:03.068Z,3.77
2023-05-14T08:43:39.485Z,4.13
2023-05-14T08:46:07.365Z,5.70
2023-05-14T08:48:36.151Z,4.07
2023-05-14T08:51:05.729Z,5.10
2023-05-14T08:53:34.047Z,3.83
2023-05-14T08:56:02.465Z,3.43
2023-05-14T08:58:30.738Z,3.70
2023-05-14T09:00:58.602Z,7.00
2023-05-14T09:03:26.497Z,4.20
2023-05-14T09:05:54.778Z,4.30
2023-05-14T09:08:24.166Z,4.03
2023-05-14T09:10:51.995Z,4.40
2023-05-14T09:13:19.866Z,3.80
2023-05-14T09:15:49.328Z,4.60
2023-05-14T09:18:18.544Z,5.03
2023-05-14T09:20:48.151Z,4.10
2023-05-14T09:23:16.183Z,4.03
2023-05-14T09:25:45.374Z,3.50
2023-05-14T09:28:13.181Z,5.10
2023-05-14T09:30:41.214Z,3.90
2023-05-14T09:33:10.402Z,4.07
2023-05-14T09:35:40.311Z,4.47
2023-05-14T09:38:09.339Z,4.00
2023-05-14T09:40:37.391Z,4.10
2023-05-14T09:43:06.731Z,6.83
2023-05-14T09:45:36.072Z,3.93
2023-05-14T09:48:04.430Z,4.50
2023-05-14T09:50:32.309Z,5.50
2023-05-14T09:53:00.505Z,3.83
2023-05-14T09:55:28.948Z,6.23
2023-05-14T09:57:57.014Z,3.60
2023-05-14T10:00:26.921Z,9.30
2023-05-14T10:02:55.429Z,4.13
2023-05-14T10:05:24.777Z,3.30
2023-05-14T10:07:54.765Z,3.47
2023-05-14T10:10:25.801Z,3.70
2023-05-14T10:12:58.293Z,3.57
2023-05-14T10:15:31.888Z,3.50
2023-05-14T10:18:02.065Z,3.20
2023-05-14T10:20:30.691Z,4.23
2023-05-14T10:22:59.427Z,3.50
2023-05-14T10:25:28.568Z,3.47
2023-05-14T10:27:58.163Z,3.30
2023-05-14T10:30:30.337Z,3.53
2023-05-14T10:33:09.597Z,3.27
2023-05-14T10:35:57.308Z,3.47
2023-05-14T10:38:28.170Z,3.67
2023-05-14T10:41:01.365Z,4.03
2023-05-14T10:43:31.020Z,3.43
2023-05-14T10:46:01.202Z,3.37
2023-05-14T10:48:29.167Z,9.63
2023-05-14T10:50:58.389Z,5.60
2023-05-14T10:53:33.530Z,5.90
2023-05-14T10:56:04.745Z,4.07
2023-05-14T10:58:33.814Z,3.97
2023-05-14T11:01:03.202Z,3.67
2023-05-14T11:03:32.017Z,3.57
2023-05-14T11:06:01.277Z,3.70
2023-05-14T11:08:29.682Z,4.07
2023-05-14T11:10:57.920Z,3.90
2023-05-14T11:13:27.487Z,4.03
2023-05-14T11:15:55.665Z,8.83
2023-05-14T11:18:33.067Z,5.07
2023-05-14T11:21:01.508Z,3.23
2023-05-14T11:23:29.748Z,3.03
2023-05-14T11:25:57.899Z,5.13
2023-05-14T11:28:27.394Z,2.90
2023-05-14T11:30:55.556Z,3.10
2023-05-14T11:33:23.432Z,4.20
2023-05-14T11:35:52.895Z,3.33
2023-05-14T11:38:21.825Z,3.20
2023-05-14T11:40:53.996Z,9.13
2023-05-14T11:43:23.752Z,3.27
2023-05-14T11:45:52.700Z,4.60
2023-05-14T11:48:21.032Z,3.43
2023-05-14T11:50:49.920Z,2.80
2023-05-14T11:53:20.840Z,3.33
2023-05-14T11:55:48.830Z,2.93
2023-05-14T11:58:18.876Z,2.83
2023-05-14T12:00:47.391Z,3.37
2023-05-14T12:03:15.720Z,2.30
2023-05-14T12:05:56.825Z,2.67
2023-05-14T12:08:28.055Z,2.50
2023-05-14T12:10:56.040Z,2.73
2023-05-14T12:13:27.297Z,2.60
2023-05-14T12:15:56.601Z,2.80
2023-05-14T12:18:25.947Z,2.60
2023-05-14T12:20:53.863Z,2.70
2023-05-14T12:23:27.885Z,3.00
2023-05-14T12:25:55.718Z,2.80
2023-05-14T12:28:24.660Z,2.90
2023-05-14T12:30:57.502Z,2.50
2023-05-14T12:33:26.546Z,2.80
2023-05-14T12:35:58.939Z,2.70
2023-05-14T12:38:29.836Z,2.57
2023-05-14T12:40:57.784Z,2.93
2023-05-14T12:43:29.979Z,2.87
2023-05-14T12:45:57.851Z,4.60
2023-05-14T12:48:26.132Z,7.43
2023-05-14T12:50:53.975Z,2.80
2023-05-14T12:53:21.821Z,2.80
2023-05-14T12:55:51.038Z,2.77
2023-05-14T12:58:18.894Z,3.00
2023-05-14T13:00:46.764Z,2.53
2023-05-14T13:03:14.739Z,2.70
2023-05-14T13:05:42.618Z,2.67
2023-05-14T13:08:10.802Z,2.60
2023-05-14T13:10:38.664Z,2.97
2023-05-14T13:13:08.406Z,2.53
2023-05-14T13:15:36.839Z,3.13
2023-05-14T13:18:05.117Z,2.30
2023-05-14T13:20:36.231Z,5.13
2023-05-14T13:23:04.093Z,3.00
2023-05-14T13:25:32.009Z,2.40
2023-05-14T13:28:00.340Z,2.20
2023-05-14T13:30:30.486Z,2.30
2023-05-14T13:32:58.458Z,3.13
2023-05-14T13:35:26.538Z,2.40
2023-05-14T13:37:54.605Z,2.20
2023-05-14T13:40:22.630Z,2.20
2023-05-14T13:42:51.186Z,2.43
2023-05-14T13:45:41.617Z,1.87
2023-05-14T13:48:30.980Z,1.70
2023-05-14T13:51:19.510Z,1.70
2023-05-14T13:54:07.715Z,1.70
2023-05-14T13:56:56.467Z,1.53
2023-05-14T13:59:44.930Z,2.30
2023-05-14T14:02:34.729Z,4.37
2023-05-14T14:05:26.989Z,2.20
2023-05-14T14:08:23.266Z,2.40
2023-05-14T14:11:13.596Z,2.00
2023-05-14T14:14:01.778Z,2.40
2023-05-14T14:16:49.914Z,2.33
2023-05-14T14:19:39.564Z,2.70
2023-05-14T14:22:29.102Z,2.40
2023-05-14T14:25:17.668Z,2.30
2023-05-14T14:28:06.518Z,2.93
2023-05-14T14:30:54.765Z,5.63
2023-05-14T14:33:43.111Z,2.40
2023-05-14T14:36:32.622Z,2.70
2023-05-14T14:39:21.132Z,3.50
2023-05-14T14:42:09.541Z,2.63
2023-05-14T14:44:58.103Z,2.60
2023-05-14T14:47:48.718Z,3.30
2023-05-14T14:50:37.002Z,2.60
2023-05-14T14:53:26.628Z,2.80
2023-05-14T14:56:15.327Z,2.43
2023-05-14T14:59:03.942Z,2.40
2023-05-14T15:01:52.480Z,2.90
2023-05-14T15:04:42.433Z,2.33
2023-05-14T15:07:32.954Z,2.13
2023-05-14T15:10:23.074Z,6.10
2023-05-14T15:13:11.865Z,2.27
2023-05-14T15:16:00.069Z,2.23
2023-05-14T15:18:48.220Z,2.70
2023-05-14T15:21:36.786Z,2.60
2023-05-14T15:24:26.156Z,2.07
2023-05-14T15:27:15.775Z,2.30
2023-05-14T15:30:04.815Z,2.40
2023-05-14T15:32:53.560Z,2.73
2023-05-14T15:35:41.832Z,2.30
2023-05-14T15:38:30.029Z,2.10
2023-05-14T15:41:18.193Z,2.27
2023-05-14T15:44:07.918Z,2.20
2023-05-14T15:46:56.090Z,2.20
2023-05-14T15:49:44.239Z,2.57
2023-05-14T15:52:32.685Z,2.07
2023-05-14T15:55:20.896Z,2.23
2023-05-14T15:58:09.112Z,2.10
2023-05-14T16:00:58.621Z,2.50
2023-05-14T16:03:46.852Z,2.10
2023-05-14T16:06:35.483Z,2.33
2023-05-14T16:09:23.661Z,2.27
2023-05-14T16:12:12.477Z,4.30
2023-05-14T16:15:00.940Z,2.13
2023-05-14T16:17:50.548Z,7.37
2023-05-14T16:20:39.259Z,2.90
2023-05-14T16:23:27.628Z,2.57
2023-05-14T16:26:15.774Z,2.00
2023-05-14T16:29:03.925Z,2.90
2023-05-14T16:31:52.110Z,2.20
2023-05-14T16:34:41.880Z,2.83
2023-05-14T16:37:30.046Z,2.13
2023-05-14T16:40:19.675Z,2.20
2023-05-14T16:43:07.940Z,2.47
2023-05-14T16:45:56.620Z,2.53
2023-05-14T16:48:45.290Z,3.07
2023-05-14T16:51:34.921Z,2.00
2023-05-14T16:54:23.182Z,1.80
2023-05-14T16:57:11.366Z,1.80
2023-05-14T16:59:59.540Z,2.13
2023-05-14T17:02:49.665Z,1.87
2023-05-14T17:05:37.874Z,4.97
2023-05-14T17:08:31.746Z,2.87
2023-05-14T17:11:21.080Z,1.37
2023-05-14T17:14:09.304Z,1.67
2023-05-14T17:16:57.669Z,1.60
2023-05-14T17:19:46.895Z,1.83
2023-05-14T17:22:35.500Z,2.93
2023-05-14T17:25:26.464Z,1.30
2023-05-14T17:28:14.781Z,1.50
2023-05-14T17:31:02.965Z,5.13
2023-05-14T17:33:52.240Z,1.53
2023-05-14T17:36:40.606Z,12.43
2023-05-14T17:39:29.192Z,2.07
2023-05-14T17:42:18.898Z,5.80
2023-05-14T17:45:08.685Z,2.50
2023-05-14T17:47:56.825Z,1.80
2023-05-14T17:50:45.162Z,1.90
2023-05-14T17:53:33.344Z,1.60
2023-05-14T17:56:21.518Z,1.40
2023-05-14T17:59:11.101Z,1.87
2023-05-14T18:01:59.353Z,2.00
2023-05-14T18:04:47.748Z,1.67
2023-05-14T18:07:36.812Z,1.90
2023-05-14T18:10:25.228Z,1.80
2023-05-14T18:13:13.418Z,1.67
2023-05-14T18:16:04.089Z,2.70
2023-05-14T18:18:52.489Z,3.50
2023-05-14T18:21:40.667Z,4.20
2023-05-14T18:24:30.279Z,2.87
2023-05-14T18:27:18.588Z,4.50
2023-05-14T18:30:08.143Z,1.97
2023-05-14T18:32:58.877Z,2.73
2023-05-14T18:35:47.031Z,2.00
2023-05-14T18:38:35.257Z,1.90
2023-05-14T18:41:23.597Z,4.00
2023-05-14T18:44:11.750Z,2.20
2023-05-14T18:47:00.484Z,2.10
2023-05-14T18:49:51.619Z,2.40
2023-05-14T18:52:39.790Z,2.30
2023-05-14T18:55:27.950Z,2.40
2023-05-14T18:58:16.615Z,3.17
2023-05-14T19:01:04.890Z,3.03
2023-05-14T19:03:53.669Z,2.10
2023-05-14T19:06:43.325Z,2.77
2023-05-14T19:09:31.448Z,2.60
2023-05-14T19:12:19.595Z,2.80
2023-05-14T19:15:08.734Z,2.37
2023-05-14T19:17:56.907Z,2.30
2023-05-14T19:20:46.617Z,2.67
2023-05-14T19:23:36.234Z,2.20
2023-05-14T19:26:24.469Z,2.20
2023-05-14T19:29:12.886Z,2.30
2023-05-14T19:32:01.195Z,2.43
2023-05-14T19:34:51.490Z,5.93
2023-05-14T19:37:39.892Z,2.37
2023-05-14T19:40:29.590Z,5.40
2023-05-14T19:43:17.910Z,4.53
2023-05-14T19:46:06.479Z,2.33
2023-05-14T19:48:54.706Z,2.33
2023-05-14T19:51:42.868Z,3.47
2023-05-14T19:54:31.062Z,2.20
2023-05-14T19:57:20.829Z,2.17
2023-05-14T20:00:10.569Z,2.30
2023-05-14T20:02:59.783Z,2.33
2023-05-14T20:05:48.927Z,2.50
2023-05-14T20:08:37.063Z,2.70
2023-05-14T20:11:25.200Z,2.33
2023-05-14T20:14:14.824Z,2.80
2023-05-14T20:17:03.063Z,2.30
2023-05-14T20:19:52.243Z,2.40
2023-05-14T20:22:40.608Z,3.20
2023-05-14T20:25:29.210Z,5.40
2023-05-14T20:28:17.568Z,2.70
2023-05-14T20:31:07.153Z,3.00
2023-05-14T20:33:55.361Z,3.00
2023-05-14T20:36:43.535Z,5.33
2023-05-14T20:39:32.303Z,3.37
2023-05-14T20:42:20.439Z,3.50
2023-05-14T20:45:09.633Z,7.00
2023-05-14T20:47:59.235Z,3.53
2023-05-14T20:50:47.497Z,3.60
2023-05-14T20:53:39.079Z,3.43
2023-05-14T20:56:27.523Z,3.93
2023-05-14T20:59:15.689Z,4.40
2023-05-14T21:02:03.965Z,5.43
2023-05-14T21:04:53.611Z,4.63
2023-05-14T21:07:41.795Z,6.67
2023-05-14T21:10:29.994Z,5.20
2023-05-14T21:13:18.173Z,9.57
2023-05-14T21:16:06.806Z,6.33
2023-05-14T21:18:55.045Z,4.20
2023-05-14T21:21:44.595Z,4.40
2023-05-14T21:24:32.820Z,5.60
2023-05-14T21:27:20.976Z,6.60
2023-05-14T21:30:10.425Z,6.13
2023-05-14T21:32:58.678Z,5.97
2023-05-14T21:35:46.925Z,6.00
2023-05-14T21:38:36.686Z,4.70
2023-05-14T21:41:24.938Z,4.07
2023-05-14T21:44:13.107Z,8.40
2023-05-14T21:47:01.411Z,3.70
2023-05-14T21:49:49.583Z,4.70
2023-05-14T21:52:38.065Z,4.30
2023-05-14T21:55:28.050Z,7.87
2023-05-14T21:58:16.418Z,5.93
2023-05-14T22:01:04.684Z,5.90
2023-05-14T22:03:53.370Z,10.37
2023-05-14T22:06:43.407Z,4.93
2023-05-14T22:09:31.636Z,4.83
2023-05-14T22:12:21.216Z,4.67
2023-05-14T22:15:10.603Z,3.70
2023-05-14T22:17:58.786Z,4.40
2023-05-14T22:20:47.187Z,3.90
2023-05-14T22:23:35.305Z,6.97
2023-05-14T22:26:23.609Z,5.67
2023-05-14T22:29:13.118Z,5.07
2023-05-14T22:32:01.265Z,4.33
2023-05-14T22:34:49.417Z,4.40
2023-05-14T22:37:37.524Z,3.50
2023-05-14T22:40:25.785Z,3.90
2023-05-14T22:43:13.937Z,6.43
2023-05-14T22:46:03.509Z,3.63
2023-05-14T22:48:51.686Z,6.17
2023-05-14T22:51:39.808Z,8.53
2023-05-14T22:54:27.957Z,3.60
2023-05-14T22:57:16.122Z,4.30
2023-05-14T23:00:05.503Z,4.20
2023-05-14T23:02:55.072Z,5.50
2023-05-14T23:05:43.272Z,4.70
2023-05-14T23:08:31.416Z,4.77
2023-05-14T23:11:19.550Z,4.87
2023-05-14T23:14:07.725Z,4.27
2023-05-14T23:16:55.915Z,4.73
2023-05-14T23:19:45.455Z,5.00
2023-05-14T23:22:33.638Z,5.07
2023-05-14T23:25:21.846Z,5.23
2023-05-14T23:28:10.070Z,4.40
2023-05-14T23:30:58.236Z,5.47
2023-05-14T23:33:46.712Z,4.57
2023-05-14T23:36:36.904Z,4.57
2023-05-14T23:39:25.123Z,4.93
2023-05-14T23:42:13.249Z,4.30
2023-05-14T23:45:01.410Z,5.13
2023-05-14T23:47:49.607Z,4.70
2023-05-14T23:50:38.199Z,4.70
2023-05-14T23:53:27.755Z,4.63
2023-05-14T23:56:15.924Z,5.13
2023-05-14T23:59:04.948Z,4.80
